Ashaway, Rhode Island
Current Conditions -  °F | °C
As of 4:53 PM on Thursday 27 Nov 2014 (Local Time) from KWST Reporting Station
Light Rain Light Rain  
Wind Chill: 31°   Ceiling: 1700
Heat Index: 37°   Visibility: 10mi
Dew Point: 33°   Wind: 8mph
Humidity: 86%   Direction: 340°NNW
Pressure: 29.98"   Gusts: NA
Location:  41.43°N, 71.79°W
Report Text: KWST 272153Z AUTO 34007KT 10SM -RA OVC017 03/01 A2998 RMK AO2 RAB2055 SLP151 P0000 T00280006
Loading
Personal Weather Stations






























Interactive Weather Map New forecast layout! Learn more

10-Day Weather Forecast

Advertisements
Track Severe Weather on mobile